createdAt,value
2023-03-14T00:01:51.530Z,86.90
2023-03-14T00:06:52.996Z,87.69
2023-03-14T00:11:54.670Z,87.17
2023-03-14T00:16:56.153Z,87.07
2023-03-14T00:21:57.593Z,87.03
2023-03-14T00:26:59.076Z,86.96
2023-03-14T00:32:00.521Z,86.57
2023-03-14T00:37:01.874Z,86.57
2023-03-14T00:42:03.441Z,86.12
2023-03-14T00:47:04.995Z,86.11
2023-03-14T00:52:06.408Z,85.99
2023-03-14T00:57:07.861Z,86.96
2023-03-14T01:02:09.286Z,87.63
2023-03-14T01:07:10.908Z,88.14
2023-03-14T01:12:14.339Z,87.21
2023-03-14T01:17:17.452Z,86.72
2023-03-14T01:22:18.839Z,86.86
2023-03-14T01:27:20.398Z,87.04
2023-03-14T01:32:22.349Z,87.61
2023-03-14T01:37:24.035Z,87.46
2023-03-14T01:42:25.922Z,87.88
2023-03-14T01:47:27.886Z,87.53
2023-03-14T01:52:37.015Z,87.15
2023-03-14T01:57:53.236Z,87.13
2023-03-14T02:02:59.522Z,85.70
2023-03-14T02:08:03.232Z,85.72
2023-03-14T02:13:11.091Z,84.47
2023-03-14T02:18:31.414Z,84.68
2023-03-14T02:24:05.046Z,84.12
2023-03-14T02:29:12.985Z,83.11
2023-03-14T02:34:14.930Z,82.73
2023-03-14T02:39:25.365Z,82.01
2023-03-14T02:44:27.195Z,81.40
2023-03-14T02:49:32.312Z,79.96
2023-03-14T03:00:01.116Z,78.33
2023-03-14T03:05:07.186Z,78.79
2023-03-14T03:10:09.467Z,78.14
2023-03-14T03:15:11.305Z,78.21
2023-03-14T03:20:13.199Z,77.73
2023-03-14T03:25:14.584Z,78.29
2023-03-14T03:30:16.258Z,77.23
2023-03-14T03:35:17.998Z,76.71
2023-03-14T03:40:20.023Z,76.95
2023-03-14T03:45:21.644Z,76.81
2023-03-14T03:50:28.076Z,75.94
2023-03-14T03:55:29.659Z,76.39
2023-03-14T04:00:32.490Z,76.12
2023-03-14T04:05:35.221Z,76.46
2023-03-14T04:10:42.547Z,76.06
2023-03-14T04:15:47.270Z,76.08
2023-03-14T04:20:56.542Z,75.66
2023-03-14T04:26:03.553Z,75.71
2023-03-14T04:31:11.815Z,75.16
2023-03-14T04:36:14.781Z,75.78
2023-03-14T04:41:16.895Z,75.33
2023-03-14T04:46:18.897Z,75.36
2023-03-14T04:51:23.760Z,75.09
2023-03-14T04:56:25.273Z,75.18
2023-03-14T05:01:27.263Z,74.56
2023-03-14T05:06:56.546Z,75.75
2023-03-14T05:12:16.440Z,75.46
2023-03-14T05:17:29.207Z,75.33
2023-03-14T05:22:50.216Z,75.19
2023-03-14T05:28:01.900Z,75.56
2023-03-14T05:33:13.750Z,74.95
2023-03-14T05:38:33.629Z,75.68
2023-03-14T05:43:58.003Z,75.91
2023-03-14T05:49:17.910Z,75.56
2023-03-14T05:54:33.667Z,75.53
2023-03-14T05:59:58.268Z,75.71
2023-03-14T06:05:20.260Z,76.25
2023-03-14T06:10:23.432Z,75.82
2023-03-14T06:15:24.938Z,76.24
2023-03-14T06:20:29.217Z,77.09
2023-03-14T06:25:31.592Z,76.45
2023-03-14T06:30:35.518Z,75.96
2023-03-14T06:35:37.646Z,76.03
2023-03-14T06:40:39.348Z,76.87
2023-03-14T06:45:45.811Z,76.33
2023-03-14T06:50:49.439Z,75.82
2023-03-14T06:55:51.180Z,74.34
2023-03-14T07:00:55.495Z,75.06
2023-03-14T07:06:00.869Z,74.59
2023-03-14T07:11:02.561Z,74.63
2023-03-14T07:16:06.399Z,74.20
2023-03-14T07:21:13.062Z,74.43
2023-03-14T07:26:14.609Z,74.28
2023-03-14T07:31:21.515Z,74.48
2023-03-14T07:36:23.274Z,73.47
2023-03-14T07:41:24.831Z,74.29
2023-03-14T07:46:52.184Z,73.80
2023-03-14T07:51:53.632Z,74.36
2023-03-14T07:56:55.137Z,73.41
2023-03-14T08:01:56.577Z,73.93
2023-03-14T08:06:58.016Z,74.50
2023-03-14T08:11:59.450Z,73.83
2023-03-14T08:17:00.892Z,72.88
2023-03-14T08:22:02.470Z,72.39
2023-03-14T08:27:04.063Z,71.73
2023-03-14T08:32:05.569Z,72.96
2023-03-14T08:37:16.607Z,71.87
2023-03-14T08:42:21.389Z,71.47
2023-03-14T08:47:22.762Z,69.91
2023-03-14T08:52:24.334Z,69.54
2023-03-14T08:57:28.588Z,69.02
2023-03-14T09:02:30.059Z,68.33
2023-03-14T09:07:31.498Z,66.76
2023-03-14T09:12:35.482Z,67.11
2023-03-14T09:17:36.937Z,66.75
2023-03-14T09:22:38.284Z,66.52
2023-03-14T09:27:39.730Z,66.70
2023-03-14T09:32:41.101Z,66.44
2023-03-14T09:37:42.829Z,66.31
2023-03-14T09:42:44.683Z,67.06
2023-03-14T09:47:58.655Z,66.10
2023-03-14T09:53:05.482Z,66.31
2023-03-14T09:58:13.307Z,67.07
2023-03-14T10:03:14.689Z,66.77
2023-03-14T10:08:16.106Z,66.27
2023-03-14T10:13:25.215Z,66.59
2023-03-14T10:18:29.324Z,67.25
2023-03-14T10:23:34.102Z,66.96
2023-03-14T10:28:43.698Z,66.61
2023-03-14T10:34:02.472Z,67.48
2023-03-14T10:39:19.026Z,67.09
2023-03-14T10:44:23.714Z,67.08
2023-03-14T10:49:34.341Z,67.04
2023-03-14T10:54:35.804Z,66.81
2023-03-14T10:59:38.883Z,67.86
2023-03-14T11:04:56.341Z,67.53
2023-03-14T11:10:15.648Z,66.63
2023-03-14T11:15:28.332Z,65.58
2023-03-14T11:20:39.470Z,65.34
2023-03-14T11:26:01.608Z,66.03
2023-03-14T11:31:20.818Z,64.74
2023-03-14T11:36:31.592Z,64.32
2023-03-14T11:41:40.871Z,63.45
2023-03-14T11:46:48.363Z,64.56
2023-03-14T11:51:52.897Z,63.33
2023-03-14T11:57:06.449Z,62.88
2023-03-14T12:02:22.343Z,61.11
2023-03-14T12:08:08.551Z,61.52
2023-03-14T12:13:12.698Z,59.10
2023-03-14T12:18:22.051Z,59.06
2023-03-14T12:23:25.926Z,59.00
2023-03-14T12:28:33.322Z,59.30
2023-03-14T12:33:35.224Z,59.46
2023-03-14T12:38:36.648Z,58.30
2023-03-14T12:43:38.768Z,59.37
2023-03-14T12:48:41.186Z,58.66
2023-03-14T12:54:12.521Z,59.23
2023-03-14T12:59:32.385Z,60.91
2023-03-14T13:04:40.237Z,60.87
2023-03-14T13:09:56.400Z,60.06
2023-03-14T13:14:59.812Z,59.52
2023-03-14T13:20:13.352Z,59.62
2023-03-14T13:25:14.838Z,60.75
2023-03-14T13:30:28.462Z,61.67
2023-03-14T13:35:30.902Z,60.91
2023-03-14T13:40:34.576Z,61.45
2023-03-14T13:45:45.550Z,60.59
2023-03-14T13:50:53.217Z,59.99
2023-03-14T13:55:54.918Z,59.65
2023-03-14T14:01:06.065Z,61.12
2023-03-14T14:06:26.420Z,59.99
2023-03-14T14:11:53.707Z,59.65
2023-03-14T14:17:06.440Z,59.27
2023-03-14T14:22:11.273Z,59.93
2023-03-14T14:27:15.821Z,59.26
2023-03-14T14:32:17.277Z,58.97
2023-03-14T14:37:36.263Z,59.16
2023-03-14T14:42:41.856Z,58.64
2023-03-14T14:47:53.886Z,59.78
2023-03-14T14:53:05.511Z,58.70
2023-03-14T14:58:30.326Z,58.27
2023-03-14T15:03:34.332Z,59.24
2023-03-14T15:08:38.109Z,58.75
2023-03-14T15:13:39.544Z,59.40
2023-03-14T15:18:41.320Z,59.92
2023-03-14T15:23:42.937Z,60.52
2023-03-14T15:28:44.483Z,60.76
2023-03-14T15:33:46.561Z,61.32
2023-03-14T15:38:48.022Z,61.24
2023-03-14T15:43:50.029Z,63.04
2023-03-14T15:48:52.536Z,65.48
2023-03-14T15:53:54.108Z,61.85
2023-03-14T15:58:56.841Z,61.89
2023-03-14T16:04:03.206Z,64.66
2023-03-14T16:09:05.191Z,62.37
2023-03-14T16:14:10.219Z,63.45
2023-03-14T16:19:11.709Z,64.77
2023-03-14T16:24:13.283Z,66.90
2023-03-14T16:29:14.761Z,70.01
2023-03-14T16:34:16.214Z,74.97
2023-03-14T16:39:18.821Z,77.44
2023-03-14T16:44:20.249Z,80.85
2023-03-14T16:49:21.707Z,77.25
2023-03-14T16:54:23.126Z,81.32
2023-03-14T16:59:25.863Z,81.18
2023-03-14T17:04:27.519Z,80.78
2023-03-14T17:09:30.779Z,78.55
2023-03-14T17:14:32.201Z,80.47
2023-03-14T17:19:34.797Z,78.66
2023-03-14T17:24:37.316Z,80.29
2023-03-14T17:29:38.742Z,83.91
2023-03-14T17:34:40.369Z,85.98
2023-03-14T17:39:41.788Z,85.24
2023-03-14T17:44:43.241Z,85.82
2023-03-14T17:49:46.719Z,86.03
2023-03-14T17:54:48.184Z,85.59
2023-03-14T17:59:49.709Z,86.11
2023-03-14T18:04:52.555Z,84.70
2023-03-14T18:09:54.112Z,84.79
2023-03-14T18:14:55.624Z,86.03
2023-03-14T18:19:57.718Z,84.21
2023-03-14T18:24:59.067Z,85.90
2023-03-14T18:30:00.665Z,85.35
2023-03-14T18:35:02.116Z,85.67
2023-03-14T18:40:06.385Z,85.59
2023-03-14T18:45:08.234Z,86.00
2023-03-14T18:50:10.547Z,85.10
2023-03-14T18:55:12.038Z,82.80
2023-03-14T19:00:14.890Z,83.99
2023-03-14T19:05:16.429Z,84.36
2023-03-14T19:10:17.913Z,82.47
2023-03-14T19:15:19.363Z,84.55
2023-03-14T19:20:20.814Z,84.55
2023-03-14T19:25:22.366Z,82.93
2023-03-14T19:30:23.867Z,82.18
2023-03-14T19:35:25.354Z,82.72
2023-03-14T19:40:26.789Z,81.59
2023-03-14T19:45:32.227Z,79.62
2023-03-14T19:50:35.115Z,81.34
2023-03-14T19:55:37.510Z,79.56
2023-03-14T20:00:39.177Z,80.74
2023-03-14T20:05:47.209Z,81.67
2023-03-14T20:10:48.762Z,79.41
2023-03-14T20:15:53.003Z,82.64
2023-03-14T20:20:54.629Z,80.25
2023-03-14T20:25:57.772Z,78.46
2023-03-14T20:30:59.361Z,79.34
2023-03-14T20:36:00.950Z,80.21
2023-03-14T20:41:02.567Z,78.14
2023-03-14T20:46:04.767Z,77.34
2023-03-14T20:51:06.255Z,78.79
2023-03-14T20:56:08.217Z,75.94
2023-03-14T21:01:09.849Z,75.23
2023-03-14T21:06:12.607Z,76.77
2023-03-14T21:11:14.031Z,79.98
2023-03-14T21:16:15.630Z,73.32
2023-03-14T21:21:17.122Z,78.23
2023-03-14T21:26:18.550Z,77.98
2023-03-14T21:31:20.038Z,75.22
2023-03-14T21:36:21.568Z,78.66
2023-03-14T21:41:23.349Z,77.27
2023-03-14T21:46:25.976Z,75.14
2023-03-14T21:51:30.000Z,77.28
2023-03-14T21:56:31.509Z,75.74
2023-03-14T22:01:32.991Z,75.15
2023-03-14T22:06:35.057Z,77.64
2023-03-14T22:11:36.814Z,78.08
2023-03-14T22:16:38.337Z,79.46
2023-03-14T22:21:39.761Z,78.01
2023-03-14T22:26:41.238Z,74.80
2023-03-14T22:31:42.682Z,75.64
2023-03-14T22:36:44.136Z,77.30
2023-03-14T22:41:45.553Z,76.07
2023-03-14T22:46:47.034Z,75.57
2023-03-14T22:51:48.475Z,76.48
2023-03-14T22:56:49.916Z,77.34
2023-03-14T23:01:51.400Z,76.70
2023-03-14T23:06:52.818Z,80.07
2023-03-14T23:11:54.255Z,75.75
2023-03-14T23:16:55.927Z,78.30
2023-03-14T23:21:57.451Z,77.99
2023-03-14T23:26:58.885Z,74.58
2023-03-14T23:32:00.332Z,76.54
2023-03-14T23:37:01.830Z,78.69
2023-03-14T23:42:03.262Z,77.37
2023-03-14T23:47:05.050Z,75.19
2023-03-14T23:52:06.544Z,76.34
2023-03-14T23:57:09.923Z,78.56
